Time;durP1;ratioP1;P1;durP2;ratioP2;P2;SDS_P1;SDS_P2;PMS_P1;PMS_P2;Temp;Humidity;BMP_temperature;BMP_pressure;BME280_temperature;BME280_humidity;BME280_pressure;Samples;Min_cycle;Max_cycle;Signal;HPM_P1;HPM_P2
2022/04/25 00:02:27;;;;;;;38.28;26.55;;;9.30;60.30;;;;;;7384636;19;20037;-63
2022/04/25 00:05:00;;;;;;;37.38;25.92;;;9.30;60.20;;;;;;7361353;19;20047;-62
2022/04/25 00:07:30;;;;;;;34.60;24.70;;;9.40;60.50;;;;;;7356242;19;20066;-63
2022/04/25 00:10:00;;;;;;;36.22;25.08;;;9.40;61.10;;;;;;7361385;19;20011;-62
2022/04/25 00:12:32;;;;;;;34.53;24.20;;;9.40;61.20;;;;;;7363377;19;20010;-63
2022/04/25 00:15:02;;;;;;;36.78;25.95;;;9.40;61.60;;;;;;7359899;19;20098;-63
2022/04/25 00:17:32;;;;;;;37.22;25.80;;;9.40;60.60;;;;;;7377070;19;20021;-64
2022/04/25 00:20:02;;;;;;;36.58;25.15;;;9.40;61.10;;;;;;7361737;19;20011;-62
2022/04/25 00:22:32;;;;;;;36.70;24.80;;;9.40;61.50;;;;;;7362405;19;20011;-64
2022/04/25 00:25:02;;;;;;;35.35;24.95;;;9.40;61.10;;;;;;7359850;19;20010;-63
2022/04/25 00:27:35;;;;;;;33.67;22.83;;;9.40;60.60;;;;;;7356793;19;20073;-61
2022/04/25 00:30:05;;;;;;;35.20;25.20;;;9.30;60.60;;;;;;7362011;19;20103;-62
2022/04/25 00:32:35;;;;;;;32.53;24.10;;;9.40;61.50;;;;;;7384380;19;20702;-62
2022/04/25 00:35:06;;;;;;;35.53;25.52;;;9.40;61.50;;;;;;7360655;19;20006;-61
2022/04/25 00:37:36;;;;;;;35.55;25.35;;;9.40;61.10;;;;;;7354636;19;20039;-61
2022/04/25 00:40:07;;;;;;;37.53;27.13;;;9.40;60.90;;;;;;7361206;19;20068;-61
2022/04/25 00:42:39;;;;;;;37.83;26.15;;;9.40;60.90;;;;;;7362974;19;20007;-62
2022/04/25 00:45:12;;;;;;;35.40;26.92;;;9.30;60.60;;;;;;7359208;19;20454;-62
2022/04/25 00:47:43;;;;;;;38.30;26.27;;;9.30;60.30;;;;;;7379298;19;20025;-62
2022/04/25 00:50:14;;;;;;;43.85;28.10;;;9.20;60.70;;;;;;7369676;19;20018;-61
2022/04/25 00:52:44;;;;;;;40.72;28.60;;;9.20;59.60;;;;;;7369046;19;20031;-62
2022/04/25 00:55:14;;;;;;;39.13;27.85;;;9.20;59.90;;;;;;7367736;19;20058;-62
2022/04/25 00:57:47;;;;;;;41.65;28.30;;;9.20;59.50;;;;;;7361718;19;20014;-62
2022/04/25 01:00:17;;;;;;;41.65;28.60;;;9.10;58.90;;;;;;7368862;19;20011;-62
2022/04/25 01:02:47;;;;;;;42.92;28.92;;;9.20;60.00;;;;;;7369673;19;20010;-62
2022/04/25 01:05:18;;;;;;;43.10;29.13;;;9.10;59.30;;;;;;7387725;19;20018;-62
2022/04/25 01:07:48;;;;;;;45.38;30.02;;;9.10;59.00;;;;;;7360368;19;20022;-62
2022/04/25 01:10:17;;;;;;;43.63;31.33;;;9.20;59.40;;;;;;7368458;19;20073;-62
2022/04/25 01:12:50;;;;;;;44.28;31.30;;;9.20;59.50;;;;;;7368978;19;20044;-63
2022/04/25 01:15:20;;;;;;;42.95;30.10;;;9.20;58.40;;;;;;7365987;19;20011;-62
2022/04/25 01:17:50;;;;;;;45.88;31.17;;;9.20;58.60;;;;;;7363172;19;20670;-63
2022/04/25 01:20:20;;;;;;;44.13;30.63;;;9.30;58.30;;;;;;7387254;19;20027;-62
2022/04/25 01:22:55;;;;;;;41.40;30.60;;;9.30;57.80;;;;;;7368292;19;20017;-62
2022/04/25 01:28:10;;;;;;;;;;;9.10;57.30;;;;;;7362632;19;20014;-62
2022/04/25 01:30:40;;;;;;;39.35;29.75;;;9.10;57.60;;;;;;7366067;19;19915;-62
2022/04/25 01:33:10;;;;;;;45.97;31.55;;;9.10;56.90;;;;;;7368327;19;20014;-63
2022/04/25 01:35:40;;;;;;;43.33;30.42;;;9.10;57.60;;;;;;7386590;19;20093;-63
2022/04/25 01:38:10;;;;;;;43.22;30.60;;;9.10;57.60;;;;;;7361385;19;20007;-62
2022/04/25 01:40:43;;;;;;;46.58;31.65;;;9.20;57.70;;;;;;7364572;19;20101;-62
2022/04/25 01:43:13;;;;;;;43.75;29.73;;;9.20;57.20;;;;;;7367481;19;20018;-63
2022/04/25 01:45:43;;;;;;;44.78;31.63;;;9.20;57.30;;;;;;7363685;19;20486;-63
2022/04/25 01:48:13;;;;;;;40.55;29.17;;;9.10;57.40;;;;;;7361870;19;20294;-62
2022/04/25 01:50:44;;;;;;;42.40;29.42;;;9.20;57.60;;;;;;7388017;19;20018;-62
2022/04/25 01:53:14;;;;;;;40.05;28.73;;;9.10;57.40;;;;;;7367731;19;20016;-62
2022/04/25 01:55:46;;;;;;;40.05;28.70;;;9.10;57.30;;;;;;7365132;19;20026;-62
2022/04/25 01:58:17;;;;;;;39.65;28.33;;;9.00;57.30;;;;;;7360816;19;20115;-62
2022/04/25 02:00:47;;;;;;;41.53;29.42;;;9.00;57.60;;;;;;7364888;19;20392;-62
2022/04/25 02:03:17;;;;;;;44.00;29.98;;;8.90;57.60;;;;;;7366080;19;20010;-62
2022/04/25 02:05:47;;;;;;;43.58;29.10;;;9.00;58.10;;;;;;7363572;19;20078;-63
2022/04/25 02:08:18;;;;;;;43.85;30.58;;;9.00;57.60;;;;;;7381839;19;20069;-62
2022/04/25 02:13:32;;;;;;;43.42;29.45;;;8.90;58.60;;;;;;7364103;19;20373;-61
2022/04/25 02:16:03;;;;;;;41.58;29.40;;;8.80;58.00;;;;;;7366588;19;20499;-62
2022/04/25 02:18:33;;;;;;;41.10;29.88;;;8.90;58.90;;;;;;7359940;19;20010;-62
2022/04/25 02:21:03;;;;;;;43.55;29.60;;;8.90;59.20;;;;;;7364962;19;20020;-62
2022/04/25 02:23:33;;;;;;;42.33;30.13;;;8.90;59.30;;;;;;7388432;19;20022;-63
2022/04/25 02:26:06;;;;;;;44.22;31.38;;;8.90;59.70;;;;;;7365083;19;20125;-63
2022/04/25 02:28:37;;;;;;;42.72;29.83;;;8.90;59.50;;;;;;7359755;19;20127;-65
2022/04/25 02:31:09;;;;;;;44.17;31.48;;;8.90;59.70;;;;;;7364951;19;20023;-63
2022/04/25 02:33:41;;;;;;;46.88;31.52;;;8.90;60.00;;;;;;7365285;19;20014;-62
2022/04/25 02:36:13;;;;;;;42.88;30.20;;;8.90;59.90;;;;;;7365532;19;20086;-62
2022/04/25 02:38:43;;;;;;;43.88;30.90;;;8.80;59.50;;;;;;7381895;19;20039;-62
2022/04/25 02:41:16;;;;;;;43.25;30.77;;;8.90;59.80;;;;;;7364836;19;20090;-62
2022/04/25 02:43:46;;;;;;;42.63;29.48;;;8.90;59.30;;;;;;7363280;19;20506;-62
2022/04/25 02:46:18;;;;;;;43.90;31.55;;;8.90;59.70;;;;;;7364319;19;20446;-62
2022/04/25 02:48:49;;;;;;;44.28;29.20;;;8.90;59.70;;;;;;7359721;19;20078;-62
2022/04/25 02:51:20;;;;;;;45.20;30.63;;;8.80;59.40;;;;;;7362957;19;20089;-63
2022/04/25 02:53:50;;;;;;;42.08;29.88;;;8.80;60.50;;;;;;7362834;19;20090;-62
2022/04/25 02:56:22;;;;;;;45.35;31.40;;;8.80;61.40;;;;;;7385379;19;20010;-63
2022/04/25 02:58:52;;;;;;;44.40;30.73;;;8.80;61.40;;;;;;7357695;19;20480;-63
2022/04/25 03:01:22;;;;;;;46.17;31.30;;;8.80;61.40;;;;;;7358975;19;20463;-63
2022/04/25 03:03:52;;;;;;;44.45;29.70;;;8.80;61.70;;;;;;7363860;19;20015;-63
2022/04/25 03:06:22;;;;;;;43.53;29.92;;;8.80;62.10;;;;;;7363184;19;20025;-63
2022/04/25 03:08:52;;;;;;;47.75;31.67;;;8.90;62.50;;;;;;7380468;19;20024;-63
2022/04/25 03:11:25;;;;;;;47.33;31.60;;;8.90;62.50;;;;;;7360239;19;20006;-61
2022/04/25 03:13:55;;;;;;;45.95;32.00;;;8.90;62.50;;;;;;7363228;19;20030;-62
2022/04/25 03:16:29;;;;;;;46.33;31.75;;;8.90;62.50;;;;;;7364876;19;20033;-63
2022/04/25 03:19:01;;;;;;;44.77;31.83;;;8.90;62.40;;;;;;7358607;19;20018;-61
2022/04/25 03:21:31;;;;;;;43.53;29.42;;;8.90;62.20;;;;;;7362678;19;20021;-62
2022/04/25 03:24:02;;;;;;;49.50;31.88;;;8.90;62.20;;;;;;7385231;19;20089;-62
2022/04/25 03:26:37;;;;;;;46.85;32.15;;;8.90;63.00;;;;;;7362644;19;20014;-62
2022/04/25 03:29:06;;;;;;;49.22;33.10;;;8.90;61.90;;;;;;7358748;19;20038;-62
2022/04/25 03:31:36;;;;;;;42.53;30.33;;;8.90;61.30;;;;;;7361558;19;20119;-62
2022/04/25 03:34:06;;;;;;;46.05;30.08;;;8.80;61.20;;;;;;7362906;19;20111;-62
2022/04/25 03:36:37;;;;;;;41.15;28.17;;;8.80;60.80;;;;;;7362501;19;20010;-62
2022/04/25 03:39:07;;;;;;;42.35;29.80;;;8.70;61.00;;;;;;7380791;19;20006;-62
2022/04/25 03:41:40;;;;;;;48.72;29.33;;;8.70;61.10;;;;;;7361708;19;20010;-61
2022/04/25 03:44:09;;;;;;;42.80;29.40;;;8.70;60.90;;;;;;7362448;19;20006;-61
2022/04/25 03:46:39;;;;;;;51.78;30.08;;;8.60;61.20;;;;;;7362541;19;20024;-62
2022/04/25 03:49:09;;;;;;;44.97;31.27;;;8.50;61.00;;;;;;7358907;19;20414;-62
2022/04/25 03:51:39;;;;;;;47.40;31.42;;;8.60;61.20;;;;;;7361495;19;20004;-62
2022/04/25 03:54:09;;;;;;;45.92;31.15;;;8.50;61.20;;;;;;7384196;19;20081;-62
2022/04/25 03:59:24;;;;;;;;;;;8.40;61.10;;;;;;7360931;19;20540;-62
2022/04/25 04:01:53;;;;;;;49.25;34.78;;;8.50;60.40;;;;;;7362537;19;20441;-62
2022/04/25 04:04:23;;;;;;;49.83;34.20;;;8.50;60.50;;;;;;7361526;19;20077;-61
2022/04/25 04:06:53;;;;;;;50.17;35.05;;;8.60;60.70;;;;;;7357820;19;20135;-63
2022/04/25 04:12:10;;;;;;;52.42;34.67;;;8.50;59.10;;;;;;7383730;19;20034;-62
2022/04/25 04:14:40;;;;;;;48.63;33.40;;;8.40;58.30;;;;;;7361671;19;20021;-63
2022/04/25 04:17:10;;;;;;;49.75;31.80;;;8.40;59.00;;;;;;7357976;19;20017;-62
2022/04/25 04:19:41;;;;;;;53.83;33.60;;;8.40;58.20;;;;;;7357199;19;20781;-62
2022/04/25 04:22:11;;;;;;;51.22;34.55;;;8.40;58.50;;;;;;7362826;19;20014;-63
2022/04/25 04:24:41;;;;;;;48.63;32.78;;;8.50;57.90;;;;;;7368964;19;20017;-63
2022/04/25 04:27:16;;;;;;;52.03;35.22;;;8.50;57.90;;;;;;7386485;19;20501;-63
2022/04/25 04:29:46;;;;;;;49.75;33.53;;;8.50;57.70;;;;;;7366449;19;20015;-62
2022/04/25 04:32:16;;;;;;;50.15;35.08;;;8.60;58.00;;;;;;7370199;19;20014;-62
2022/04/25 04:34:46;;;;;;;49.97;33.53;;;8.60;57.70;;;;;;7367933;19;20415;-62
2022/04/25 04:37:16;;;;;;;50.90;34.35;;;8.60;57.40;;;;;;7363976;19;20366;-63
2022/04/25 04:39:46;;;;;;;53.05;34.72;;;8.60;57.30;;;;;;7366104;19;20014;-62
2022/04/25 04:42:18;;;;;;;52.20;33.70;;;8.70;57.90;;;;;;7391622;19;20093;-62
2022/04/25 04:44:51;;;;;;;48.70;33.38;;;8.70;57.20;;;;;;7367112;19;20034;-62
2022/04/25 04:47:20;;;;;;;53.67;35.67;;;8.80;57.40;;;;;;7363163;19;20078;-62
2022/04/25 04:49:50;;;;;;;47.42;32.53;;;8.90;55.60;;;;;;7362742;19;20014;-62
2022/04/25 04:52:20;;;;;;;46.92;33.10;;;8.90;54.10;;;;;;7368435;19;20017;-63
2022/04/25 04:54:50;;;;;;;44.67;31.33;;;8.90;54.00;;;;;;7367197;19;20040;-61
2022/04/25 04:57:23;;;;;;;48.88;33.00;;;8.80;51.30;;;;;;7363909;19;20062;-62
2022/04/25 04:59:53;;;;;;;43.65;30.48;;;8.80;50.50;;;;;;7386356;19;20526;-61
2022/04/25 05:02:22;;;;;;;43.80;30.50;;;8.90;52.00;;;;;;7369137;19;20113;-62
2022/04/25 05:04:53;;;;;;;43.50;30.50;;;9.00;51.60;;;;;;7366975;19;20490;-61
2022/04/25 05:07:23;;;;;;;44.00;29.33;;;8.90;49.50;;;;;;7362324;19;20010;-61
2022/04/25 05:09:52;;;;;;;45.65;31.10;;;8.90;48.80;;;;;;7364711;19;20606;-62
2022/04/25 05:12:31;;;;;;;45.92;30.13;;;9.00;49.60;;;;;;7368789;19;20611;-62
2022/04/25 05:15:05;;;;;;;40.50;29.58;;;9.10;48.50;;;;;;7386632;19;20022;-61
2022/04/25 05:17:35;;;;;;;42.60;29.90;;;9.10;46.80;;;;;;7359345;19;20082;-61
2022/04/25 05:20:05;;;;;;;44.95;30.50;;;9.10;48.10;;;;;;7364503;19;20016;-61
2022/04/25 05:22:35;;;;;;;41.67;29.38;;;9.20;48.00;;;;;;7368039;19;20006;-61
2022/04/25 05:25:06;;;;;;;42.80;30.52;;;9.20;45.70;;;;;;7365738;19;20015;-62
2022/04/25 05:27:39;;;;;;;43.22;31.20;;;9.10;45.20;;;;;;7360470;19;20101;-61
2022/04/25 05:30:10;;;;;;;42.70;29.77;;;9.20;45.90;;;;;;7387061;19;20014;-61
2022/04/25 05:32:46;;;;;;;43.65;29.98;;;9.30;45.80;;;;;;7366576;19;20126;-62
2022/04/25 05:35:17;;;;;;;46.58;30.30;;;9.30;44.50;;;;;;7362383;19;20006;-61
2022/04/25 05:37:48;;;;;;;42.65;30.35;;;9.50;44.20;;;;;;7358541;19;20002;-62
2022/04/25 05:40:19;;;;;;;46.70;31.10;;;9.50;43.80;;;;;;7364781;19;20007;-62
2022/04/25 05:42:53;;;;;;;48.70;31.40;;;9.90;43.20;;;;;;7367852;19;20025;-62
2022/04/25 05:45:26;;;;;;;44.63;31.83;;;10.10;39.00;;;;;;7363828;19;20055;-62
2022/04/25 05:47:57;;;;;;;45.83;31.58;;;10.10;36.60;;;;;;7378517;19;20015;-62
2022/04/25 05:53:11;;;;;;;40.90;29.10;;;10.80;30.80;;;;;;7366138;19;20030;-62
2022/04/25 05:55:41;;;;;;;36.92;28.60;;;10.70;27.50;;;;;;7365411;19;20506;-63
2022/04/25 05:58:14;;;;;;;41.78;28.63;;;10.70;26.40;;;;;;7357322;19;20011;-62
2022/04/25 06:00:44;;;;;;;37.70;27.80;;;11.00;26.50;;;;;;7363791;19;20034;-62
2022/04/25 06:03:14;;;;;;;38.95;27.90;;;11.00;24.10;;;;;;7388908;19;20021;-63
2022/04/25 06:05:45;;;;;;;37.03;27.88;;;10.90;23.70;;;;;;7363925;19;20021;-62
2022/04/25 06:08:15;;;;;;;37.70;28.42;;;10.80;23.60;;;;;;7357214;19;20465;-63
2022/04/25 06:10:44;;;;;;;36.17;27.90;;;10.60;28.10;;;;;;7364043;19;20047;-63
2022/04/25 06:13:17;;;;;;;36.42;27.63;;;10.80;25.40;;;;;;7365671;19;20019;-63
2022/04/25 06:15:47;;;;;;;34.88;26.33;;;11.20;24.80;;;;;;7363440;19;20021;-63
2022/04/25 06:18:17;;;;;;;36.90;27.10;;;11.10;22.80;;;;;;7379255;19;20006;-63
2022/04/25 06:20:48;;;;;;;37.50;27.65;;;11.50;21.40;;;;;;7364367;19;20018;-63
2022/04/25 06:23:18;;;;;;;35.22;26.58;;;11.60;19.30;;;;;;7365692;19;20074;-63
2022/04/25 06:25:47;;;;;;;33.95;25.83;;;11.50;19.40;;;;;;7364567;19;20539;-63
2022/04/25 06:28:20;;;;;;;30.65;24.77;;;11.80;18.50;;;;;;7359010;19;20007;-63
2022/04/25 06:30:50;;;;;;;33.65;25.30;;;11.80;17.50;;;;;;7363903;19;20474;-62
2022/04/25 06:33:20;;;;;;;31.50;24.48;;;11.70;14.70;;;;;;7364793;19;20020;-63
2022/04/25 06:35:51;;;;;;;31.13;25.77;;;11.50;16.70;;;;;;7385420;19;20078;-62
2022/04/25 06:38:21;;;;;;;34.17;23.58;;;11.90;14.90;;;;;;7357214;19;20025;-62
2022/04/25 06:40:51;;;;;;;30.50;24.33;;;12.00;16.40;;;;;;7361487;19;20486;-62
2022/04/25 06:43:23;;;;;;;30.70;24.55;;;11.90;15.70;;;;;;7364120;19;20260;-62
2022/04/25 06:45:54;;;;;;;30.05;23.92;;;12.00;16.40;;;;;;7361562;19;20021;-62
2022/04/25 06:48:24;;;;;;;28.92;23.23;;;11.60;11.50;;;;;;7357467;19;20094;-63
2022/04/25 06:50:55;;;;;;;33.10;24.98;;;11.60;15.00;;;;;;7384571;19;20014;-62
2022/04/25 06:53:25;;;;;;;30.65;24.02;;;11.70;15.20;;;;;;7364474;19;20078;-63
2022/04/25 06:55:55;;;;;;;29.60;23.27;;;11.80;12.60;;;;;;7364441;19;20482;-62
2022/04/25 06:58:28;;;;;;;30.25;24.42;;;11.60;16.60;;;;;;7357842;19;20010;-62
2022/04/25 07:00:59;;;;;;;34.20;25.03;;;11.70;15.10;;;;;;7362018;19;20018;-62
2022/04/25 07:03:33;;;;;;;30.50;24.75;;;11.60;16.10;;;;;;7364120;19;20083;-62
2022/04/25 07:06:03;;;;;;;33.17;26.15;;;11.40;15.50;;;;;;7386775;19;20614;-62
2022/04/25 07:08:33;;;;;;;33.67;25.90;;;11.40;13.40;;;;;;7356439;19;20109;-62
2022/04/25 07:11:03;;;;;;;32.97;25.58;;;11.70;15.60;;;;;;7362871;19;20070;-62
2022/04/25 07:13:36;;;;;;;33.30;24.70;;;11.50;16.10;;;;;;7363230;19;20085;-62
2022/04/25 07:16:06;;;;;;;33.28;25.63;;;11.30;15.90;;;;;;7363731;19;20098;-65
2022/04/25 07:18:36;;;;;;;33.38;25.77;;;11.40;16.10;;;;;;7356876;19;20010;-65
2022/04/25 07:28:48;;;;;;;32.30;25.33;;;11.80;14.90;;;;;;7384235;19;20010;-62
2022/04/25 07:29:25;;;;;;;33.55;26.00;;;11.90;12.30;;;;;;7359976;19;20010;-61
2022/04/25 07:31:55;;;;;;;33.85;26.15;;;11.40;16.90;;;;;;7362335;19;20007;-61
2022/04/25 07:34:26;;;;;;;31.73;25.25;;;11.20;17.40;;;;;;7362708;19;20010;-61
2022/04/25 07:36:56;;;;;;;34.55;25.98;;;11.40;16.80;;;;;;7359832;19;20017;-61
2022/04/25 07:39:25;;;;;;;35.30;26.42;;;11.30;16.00;;;;;;7360194;19;20015;-62
2022/04/25 07:41:55;;;;;;;32.50;25.27;;;11.20;15.80;;;;;;7383991;19;20322;-62
2022/04/25 07:44:28;;;;;;;37.95;26.77;;;11.30;17.40;;;;;;7361625;19;20010;-62
2022/04/25 07:46:59;;;;;;;33.25;25.40;;;11.40;16.70;;;;;;7357846;19;20155;-62
2022/04/25 07:49:30;;;;;;;34.17;26.20;;;11.80;15.80;;;;;;7361228;19;20090;-62
2022/04/25 07:52:00;;;;;;;33.75;26.33;;;11.60;14.20;;;;;;7361913;19;20023;-62
2022/04/25 07:54:30;;;;;;;30.88;23.65;;;12.30;13.50;;;;;;7361642;19;20020;-61
2022/04/25 07:57:00;;;;;;;31.15;23.58;;;12.10;11.00;;;;;;7382577;19;20011;-62
2022/04/25 07:59:33;;;;;;;30.25;23.77;;;12.00;9.50;;;;;;7375026;19;20450;-62
2022/04/25 08:02:04;;;;;;;26.55;21.48;;;12.10;10.10;;;;;;7375120;19;20010;-62
2022/04/25 08:04:34;;;;;;;29.80;21.10;;;12.20;6.80;;;;;;7374502;19;20471;-63
2022/04/25 08:07:05;;;;;;;24.98;20.15;;;12.00;4.80;;;;;;7373108;19;20090;-63
2022/04/25 08:09:35;;;;;;;23.75;20.17;;;12.10;4.70;;;;;;7374722;19;20142;-63
2022/04/25 08:20:15;;;;;;;23.60;19.25;;;12.80;3.10;;;;;;7374659;19;20014;-61
2022/04/25 08:22:46;;;;;;;22.35;19.60;;;12.70;2.10;;;;;;7376336;19;20414;-63
2022/04/25 08:25:16;;;;;;;25.80;19.52;;;12.90;1.10;;;;;;7374739;19;20006;-62
2022/04/25 08:27:46;;;;;;;23.92;19.27;;;12.90;1.00;;;;;;7367718;19;20070;-62
2022/04/25 08:30:20;;;;;;;24.08;18.40;;;12.80;1.00;;;;;;7395301;19;20007;-62
2022/04/25 08:32:50;;;;;;;22.30;19.48;;;12.50;1.00;;;;;;7376002;19;20089;-62
2022/04/25 08:35:21;;;;;;;24.17;19.95;;;13.00;2.20;;;;;;7373006;19;20017;-61
2022/04/25 08:37:51;;;;;;;22.33;19.35;;;13.20;1.00;;;;;;7367178;19;20069;-62
2022/04/25 08:40:21;;;;;;;22.27;18.20;;;13.20;1.00;;;;;;7373981;19;20010;-62
2022/04/25 08:42:51;;;;;;;19.42;16.90;;;12.80;1.00;;;;;;7373875;19;20121;-63
2022/04/25 08:45:25;;;;;;;20.77;18.48;;;12.80;1.00;;;;;;7373624;19;20014;-64
2022/04/25 08:47:58;;;;;;;22.45;18.77;;;13.00;1.00;;;;;;7390328;19;20010;-61
2022/04/25 08:50:29;;;;;;;22.77;18.65;;;12.80;1.00;;;;;;7372970;19;20018;-62
2022/04/25 08:53:09;;;;;;;20.77;17.80;;;13.20;1.00;;;;;;7375117;19;20015;-62
2022/04/25 08:55:40;;;;;;;31.08;21.63;;;13.20;1.00;;;;;;7373734;19;20054;-62
2022/04/25 08:58:13;;;;;;;20.95;17.55;;;13.60;1.00;;;;;;7368382;19;20412;-63
2022/04/25 09:00:46;;;;;;;21.60;17.88;;;13.20;1.00;;;;;;7374507;19;20529;-62
2022/04/25 09:03:18;;;;;;;22.73;18.88;;;12.70;1.00;;;;;;7389677;19;20010;-63
2022/04/25 09:05:49;;;;;;;26.48;18.15;;;13.20;1.00;;;;;;7393816;19;20085;-63
2022/04/25 09:08:19;;;;;;;20.27;16.40;;;13.70;1.00;;;;;;7366170;19;20016;-63
2022/04/25 09:10:50;;;;;;;19.95;16.95;;;14.30;1.00;;;;;;7365729;19;20043;-63
2022/04/25 09:13:20;;;;;;;20.08;15.68;;;13.80;1.00;;;;;;7367330;19;20011;-62
2022/04/25 09:15:52;;;;;;;19.77;16.85;;;13.60;1.00;;;;;;7364641;19;20024;-62
2022/04/25 09:18:22;;;;;;;22.65;17.77;;;13.70;1.00;;;;;;7360164;19;20713;-62
2022/04/25 09:20:56;;;;;;;21.33;17.83;;;13.60;1.00;;;;;;7389414;19;20021;-62
2022/04/25 09:23:26;;;;;;;21.35;18.13;;;13.70;1.00;;;;;;7368260;19;20010;-62
2022/04/25 09:26:12;;;;;;;20.40;16.67;;;13.60;1.00;;;;;;7366089;19;20527;-62
2022/04/25 09:28:49;;;;;;;20.75;16.10;;;13.80;1.00;;;;;;7359406;19;20010;-62
2022/04/25 09:31:25;;;;;;;19.70;16.10;;;14.60;1.00;;;;;;7364197;19;20021;-61
2022/04/25 09:33:56;;;;;;;20.73;16.73;;;14.30;1.00;;;;;;7365255;19;20114;-62
2022/04/25 09:36:26;;;;;;;19.77;16.80;;;14.50;1.00;;;;;;7367153;19;20021;-62
2022/04/25 09:38:55;;;;;;;18.00;15.48;;;14.40;1.00;;;;;;7380951;19;20018;-62
2022/04/25 09:41:35;;;;;;;18.75;16.52;;;14.20;1.00;;;;;;7364873;19;20027;-63
2022/04/25 09:44:05;;;;;;;20.50;16.98;;;14.30;1.00;;;;;;7365181;19;20483;-62
2022/04/25 09:46:49;;;;;;;21.75;17.65;;;14.00;1.00;;;;;;7367329;19;20073;-62
2022/04/25 09:49:22;;;;;;;20.90;17.30;;;14.40;1.00;;;;;;7362973;19;20017;-61
2022/04/25 09:52:05;;;;;;;22.27;17.63;;;14.70;1.00;;;;;;7362129;19;20033;-61
2022/04/25 09:54:35;;;;;;;21.45;18.10;;;14.20;1.00;;;;;;7365799;19;20011;-62
2022/04/25 09:57:05;;;;;;;18.20;16.02;;;13.60;1.00;;;;;;7384078;19;20014;-62
2022/04/25 09:59:47;;;;;;;20.20;17.48;;;13.50;1.00;;;;;;7363061;19;20017;-62
2022/04/25 10:02:23;;;;;;;21.08;17.25;;;14.10;1.00;;;;;;7365444;19;20018;-62
2022/04/25 10:04:53;;;;;;;21.02;17.48;;;14.00;1.00;;;;;;7364968;19;20046;-62
2022/04/25 10:07:25;;;;;;;48.40;43.53;;;13.80;1.00;;;;;;7361017;19;20023;-61
2022/04/25 10:09:56;;;;;;;17.00;15.20;;;13.70;1.00;;;;;;7365484;19;20321;-62
2022/04/25 10:12:26;;;;;;;16.77;14.52;;;14.10;1.00;;;;;;7362282;19;20021;-61
2022/04/25 10:14:57;;;;;;;19.50;14.20;;;14.90;1.00;;;;;;7384818;19;20474;-62
2022/04/25 10:17:30;;;;;;;18.95;14.82;;;14.30;1.00;;;;;;7359387;19;20050;-64
2022/04/25 10:20:02;;;;;;;15.95;14.23;;;14.40;1.00;;;;;;7364516;19;20007;-63
2022/04/25 10:22:32;;;;;;;18.25;15.20;;;14.00;1.00;;;;;;7363850;19;20098;-63
2022/04/25 10:25:03;;;;;;;19.13;15.63;;;14.40;1.00;;;;;;7364313;19;20017;-62
2022/04/25 10:27:46;;;;;;;14.77;13.27;;;14.80;1.00;;;;;;7357559;19;20010;-62
2022/04/25 10:30:19;;;;;;;15.70;14.10;;;15.20;1.00;;;;;;7382798;19;20014;-63
2022/04/25 10:32:53;;;;;;;15.90;14.23;;;15.20;1.00;;;;;;7366160;19;20637;-63
2022/04/25 10:35:35;;;;;;;16.63;13.95;;;15.00;1.00;;;;;;7362945;19;20617;-63
2022/04/25 10:44:49;;;;;;;17.02;15.18;;;14.30;1.00;;;;;;7363305;19;20014;-62
2022/04/25 10:47:20;;;;;;;17.67;15.35;;;14.40;1.00;;;;;;7360322;19;20035;-62
2022/04/25 10:50:03;;;;;;;16.02;14.32;;;14.20;1.00;;;;;;7361961;19;20514;-62
2022/04/25 10:52:59;;;;;;;17.67;14.98;;;13.90;1.00;;;;;;7363760;19;20017;-63
2022/04/25 10:55:47;;;;;;;17.90;15.02;;;14.10;1.00;;;;;;7363519;19;20014;-63
2022/04/25 10:58:21;;;;;;;17.17;14.98;;;14.40;1.00;;;;;;7356794;19;20022;-61
2022/04/25 11:00:53;;;;;;;19.80;15.23;;;14.40;1.00;;;;;;7363035;19;20479;-63
2022/04/25 11:03:29;;;;;;;17.90;14.95;;;14.20;1.00;;;;;;7364029;19;20032;-63
2022/04/25 11:06:06;;;;;;;18.15;15.77;;;13.90;1.00;;;;;;7383545;19;21182;-63
2022/04/25 11:08:52;;;;;;;17.70;14.80;;;14.10;1.00;;;;;;7351285;19;20006;-63
2022/04/25 11:11:25;;;;;;;16.60;14.80;;;14.00;1.00;;;;;;7361054;19;20021;-63
2022/04/25 11:14:25;;;;;;;20.65;16.23;;;14.40;1.00;;;;;;7361788;19;20105;-63
2022/04/25 11:17:11;;;;;;;16.98;15.00;;;14.50;1.00;;;;;;7361724;19;20081;-63
2022/04/25 11:19:51;;;;;;;18.15;15.60;;;14.50;1.00;;;;;;7358981;19;20081;-62
2022/04/25 11:22:51;;;;;;;18.43;16.43;;;14.20;1.00;;;;;;7361227;19;20015;-62
2022/04/25 11:25:42;;;;;;;17.63;15.73;;;14.10;1.00;;;;;;7361639;19;20826;-62
2022/04/25 11:28:14;;;;;;;18.67;15.68;;;14.30;1.00;;;;;;7355208;19;20007;-61
2022/04/25 11:30:44;;;;;;;18.20;16.30;;;14.20;1.00;;;;;;7359689;19;20110;-62
2022/04/25 11:33:15;;;;;;;20.52;15.20;;;14.30;1.00;;;;;;7382042;19;20046;-62
2022/04/25 11:35:45;;;;;;;18.60;16.48;;;14.30;1.00;;;;;;7360942;19;20045;-62
2022/04/25 11:39:50;;;;;;;17.42;15.38;;;13.90;1.00;;;;;;7354465;19;20056;-62
2022/04/25 11:41:08;;;;;;;18.30;15.63;;;14.10;1.00;;;;;;7359722;19;20125;-62
2022/04/25 11:43:38;;;;;;;19.25;14.95;;;14.20;1.00;;;;;;7363267;19;20017;-63
2022/04/25 11:46:08;;;;;;;17.80;14.65;;;14.10;1.00;;;;;;7363846;19;20018;-62
2022/04/25 11:48:38;;;;;;;17.13;15.32;;;13.80;1.00;;;;;;7355385;19;20006;-62
2022/04/25 11:51:07;;;;;;;17.75;14.50;;;14.20;1.00;;;;;;7383489;19;20082;-63
2022/04/25 11:53:40;;;;;;;15.80;14.18;;;14.40;1.00;;;;;;7361880;19;20090;-61
2022/04/25 11:56:16;;;;;;;16.30;14.40;;;14.50;1.00;;;;;;7361899;19;20020;-61
2022/04/25 11:58:48;;;;;;;17.67;14.15;;;14.20;1.00;;;;;;7355743;19;20014;-62
2022/04/25 12:01:35;;;;;;;17.83;14.85;;;14.00;1.00;;;;;;7361027;19;20014;-62
2022/04/25 12:04:20;;;;;;;17.17;14.75;;;13.90;1.00;;;;;;7361277;19;20018;-62
2022/04/25 12:06:52;;;;;;;20.45;16.27;;;14.00;1.00;;;;;;7361194;19;20014;-62
2022/04/25 12:17:43;;;;;;;19.35;15.98;;;13.60;1.00;;;;;;7356022;19;20078;-63
2022/04/25 12:20:17;;;;;;;21.08;17.27;;;13.60;2.70;;;;;;7358330;19;20007;-62
2022/04/25 12:22:55;;;;;;;19.65;16.25;;;13.90;1.00;;;;;;7360971;19;20046;-63
2022/04/25 12:25:29;;;;;;;20.23;16.98;;;13.50;1.00;;;;;;7361771;19;20014;-64
2022/04/25 12:28:04;;;;;;;18.98;15.82;;;13.80;1.00;;;;;;7355053;19;20109;-63
2022/04/25 12:30:45;;;;;;;;;;;13.50;1.00;;;;;;7361539;19;20003;-63
2022/04/25 12:33:16;;;;;;;19.17;16.58;;;13.40;1.00;;;;;;7382017;19;19983;-63
2022/04/25 12:35:51;;;;;;;19.25;16.63;;;13.60;1.10;;;;;;7359116;19;20021;-64
2022/04/25 12:38:43;;;;;;;19.38;15.88;;;13.70;1.00;;;;;;7353366;19;20597;-63
2022/04/25 12:41:26;;;;;;;19.02;17.00;;;13.50;1.00;;;;;;7359115;19;20009;-62
2022/04/25 12:43:57;;;;;;;20.17;15.60;;;13.80;1.00;;;;;;7363394;19;20534;-63
2022/04/25 12:46:38;;;;;;;16.67;14.88;;;13.50;1.00;;;;;;7368387;19;20089;-62
2022/04/25 12:49:11;;;;;;;18.70;15.05;;;13.80;1.00;;;;;;7362618;19;20015;-63
2022/04/25 12:51:47;;;;;;;18.45;15.55;;;13.70;1.00;;;;;;7366043;19;20062;-63
2022/04/25 12:54:26;;;;;;;18.30;16.25;;;13.50;1.00;;;;;;7388388;19;20010;-62
2022/04/25 12:57:12;;;;;;;20.77;16.05;;;13.10;1.00;;;;;;7363126;19;20031;-63
2022/04/25 12:59:43;;;;;;;21.70;17.17;;;13.20;1.70;;;;;;7364284;19;20006;-63
2022/04/25 13:02:16;;;;;;;18.70;16.55;;;13.30;1.30;;;;;;7365775;19;20006;-63
2022/04/25 13:04:55;;;;;;;19.15;14.82;;;13.20;1.80;;;;;;7365086;19;20014;-62
2022/04/25 13:07:28;;;;;;;17.45;15.55;;;13.30;1.00;;;;;;7361949;19;20355;-62
2022/04/25 13:10:00;;;;;;;18.60;15.20;;;13.70;2.80;;;;;;7367582;19;20010;-63
2022/04/25 13:12:37;;;;;;;19.20;15.25;;;13.60;1.00;;;;;;7366014;19;20014;-64
2022/04/25 13:15:09;;;;;;;19.33;15.55;;;13.80;1.00;;;;;;7386171;19;20044;-63
2022/04/25 13:17:40;;;;;;;20.48;16.70;;;13.90;1.00;;;;;;7358847;19;20540;-63
2022/04/25 13:20:12;;;;;;;18.23;15.13;;;14.10;1.00;;;;;;7364652;19;20021;-63
2022/04/25 13:22:43;;;;;;;18.63;15.88;;;14.30;1.00;;;;;;7368404;19;20496;-64
2022/04/25 13:25:14;;;;;;;20.80;17.77;;;14.40;1.00;;;;;;7365815;19;20029;-64
2022/04/25 13:27:47;;;;;;;22.70;16.88;;;14.50;1.00;;;;;;7360988;19;20019;-63
2022/04/25 13:30:18;;;;;;;17.92;14.85;;;14.30;1.00;;;;;;7387352;19;20002;-62
2022/04/25 13:32:50;;;;;;;18.65;16.70;;;13.80;1.00;;;;;;7365633;19;20475;-63
2022/04/25 13:35:22;;;;;;;22.02;16.48;;;14.10;1.00;;;;;;7363223;19;20031;-63
2022/04/25 13:37:52;;;;;;;22.17;15.23;;;14.60;1.00;;;;;;7358943;19;20444;-62
2022/04/25 13:40:22;;;;;;;17.58;14.43;;;15.10;1.00;;;;;;7363765;19;20021;-62
2022/04/25 13:42:54;;;;;;;21.65;15.82;;;15.00;1.00;;;;;;7367136;19;20554;-63
2022/04/25 13:45:24;;;;;;;21.00;15.35;;;14.80;1.00;;;;;;7363516;19;20082;-64